• Join FlightAware (Why Join?)
  • Login
  • US Flag 
08:58AM EST


 

Airport Tracker/Info


-or-


 

Live Flight TrackerFlight Track Log ✈ EJA982 ✈ 15-Jun-2013 ✈ KSAF - KASE

Flight Track Log - Related Links

Times and Time Zones

All times are in EDT time to prevent confusion due to time zone crossing. See the EJA982 flight status page for this flight to view local times or setup timezone preferences in your user account.

Time Position Orientation Groundspeed Altitude Reporting Facility
EDT Latitude Longitude Course Direction KTS MPH feet Rate Location/Type
02:52PM 35.5947 -106.1028 North 203 234 7,600  Level Albuquerque Center
02:53PM 35.5689 -106.0403 117° Southeast 260 299 11,400 3,600 Climbing Albuquerque Center
02:54PM 35.6300 -106.0197 15° North 247 284 15,000 3,360 Climbing Albuquerque Center
02:55PM 35.6889 -106.0728 324° Northwest 257 296 18,400 2,940 Climbing Albuquerque Center
02:56PM 36.4891 -105.9470 North  Level FlightAware Approximate
02:56PM 35.7500 -106.1381 319° Northwest 280 322 21,100  Level Albuquerque Center
02:57PM 36.5984 -105.9325 North  Level FlightAware Approximate
02:57PM 35.8436 -106.1606 349° North 335 386 23,000  Level Albuquerque Center
02:58PM 35.9694 -106.1289 12° North 381 438 25,300 1,860 Climbing Albuquerque Center
02:59PM 36.0822 -106.1047 10° North 402 463 26,900 780 Climbing Albuquerque Center
03:00PM 36.2075 -106.0778 10° North 445 512 27,000  Climbing Albuquerque Center
03:01PM 36.3447 -106.0481 10° North 488 562 27,000  Level Albuquerque Center
03:02PM 36.4994 -106.0128 10° North 507 583 27,000  Level Albuquerque Center
03:03PM 36.6550 -105.9769 10° North 518 596 27,000  Level Denver Center
03:04PM 36.8072 -105.9431 10° North 520 598 27,000  Level Denver Center
03:05PM 36.9436 -105.9100 11° North 521 600 27,000  Level Denver Center
03:06PM 37.0906 -105.8819 North 518 596 27,000  Level Denver Center
03:07PM 37.2450 -105.9250 347° North 511 588 27,000  Level Denver Center
03:09PM 37.3758 -105.9706 345° North 506 582 27,000 -60 Level Denver Center
03:10PM 37.5272 -106.0233 345° North 505 581 26,900 -360 Descending Denver Center
03:11PM 37.6506 -106.0678 344° North 509 586 26,300 -1,020 Descending Denver Center
03:12PM 37.7939 -106.1186 344° North 482 555 24,900 -1,500 Descending Denver Center
03:13PM 37.9003 -106.1547 345° North 432 497 23,300 -960 Descending Denver Center
03:14PM 38.0047 -106.1947 343° North 398 458 23,000 -540 Descending Denver Center
03:15PM 38.1278 -106.2400 344° North 411 473 22,200 -900 Descending Denver Center
03:16PM 38.2361 -106.2783 344° North 407 468 21,200 -600 Descending Denver Center
03:17PM 38.3400 -106.3144 345° North 391 450 21,000 -120 Descending Denver Center
03:18PM 38.4450 -106.3569 342° North 393 452 21,000 -360 Level Denver Center
03:19PM 38.5481 -106.4122 337° Northwest 400 460 20,300 -1,380 Descending Denver Center
03:20PM 38.6483 -106.4653 338° Northwest 394 453 18,200 -1,620 Descending Denver Center
03:21PM 38.7386 -106.5142 337° Northwest 361 415 17,000 -600 Descending Denver Center
03:22PM 38.8433 -106.5689 338° Northwest 340 391 17,000 -60 Level Denver Center
03:23PM 38.9367 -106.6206 337° Northwest 351 404 16,900 -60 Descending Denver Center
03:24PM 39.0322 -106.6722 337° Northwest 366 421 16,900 -420 Level Denver Center
03:25PM 39.1217 -106.7211 337° Northwest 355 409 16,100 -840 Descending Denver Center
03:26PM 39.1958 -106.7611 337° Northwest 303 349 15,200 -840 Descending Denver Center
03:27PM 39.2528 -106.7919 337° Northwest 237 273 14,400 -840 Descending Denver Center
03:28PM 39.3083 -106.8225 337° Northwest 218 251 13,600 -660 Descending Denver Center
03:29PM 39.3667 -106.8583 335° Northwest 231 266 13,100 -1,200 Descending Denver Center
03:30PM 39.3742 -106.9294 278° West 203 234 11,200 -1,440 Descending Denver Center
03:31PM 39.3289 -106.9414 192° South 174 200 10,200 -1,260 Descending Denver Center
03:32PM 39.2878 -106.9081 148° Southeast 177 204 8,700 -840 Descending Denver Center
03:33PM 39.2567 -106.8561 128° Southeast 179 206 8,500 -240 Descending Denver Center